sensor_id;sensor_type;location;lat;lon;timestamp;pressure;altitude;pressure_sealevel;temperature;humidity
66664;BME280;59683;51.428;-1.994;2023-05-10T05:43:27;100508.72;;;9.82;100.00
66664;BME280;59683;51.428;-1.994;2023-05-10T06:06:11;100524.44;;;9.72;100.00
66664;BME280;59683;51.428;-1.994;2023-05-10T06:08:37;100517.34;;;9.95;100.00
66664;BME280;59683;51.428;-1.994;2023-05-10T06:11:05;100523.59;;;10.17;100.00
66664;BME280;59683;51.428;-1.994;2023-05-10T06:13:33;100520.78;;;10.52;100.00
66664;BME280;59683;51.428;-1.994;2023-05-10T06:16:01;100539.13;;;10.87;100.00
66664;BME280;59683;51.428;-1.994;2023-05-10T06:18:27;100537.03;;;11.23;100.00
66664;BME280;59683;51.428;-1.994;2023-05-10T06:20:52;100537.16;;;11.63;100.00
66664;BME280;59683;51.428;-1.994;2023-05-10T06:23:18;100546.97;;;11.94;100.00
66664;BME280;59683;51.428;-1.994;2023-05-10T06:25:45;100547.91;;;12.13;100.00
66664;BME280;59683;51.428;-1.994;2023-05-10T06:28:11;100550.78;;;12.41;100.00
66664;BME280;59683;51.428;-1.994;2023-05-10T06:30:36;100558.22;;;12.47;100.00
66664;BME280;59683;51.428;-1.994;2023-05-10T06:33:02;100553.94;;;12.75;100.00
66664;BME280;59683;51.428;-1.994;2023-05-10T06:35:28;100558.84;;;12.89;100.00
66664;BME280;59683;51.428;-1.994;2023-05-10T06:37:54;100555.53;;;13.26;100.00
66664;BME280;59683;51.428;-1.994;2023-05-10T06:40:20;100565.44;;;13.53;100.00
66664;BME280;59683;51.428;-1.994;2023-05-10T06:42:46;100569.03;;;13.81;100.00
66664;BME280;59683;51.428;-1.994;2023-05-10T06:45:13;100575.16;;;13.92;100.00
66664;BME280;59683;51.428;-1.994;2023-05-10T06:47:40;100580.06;;;13.87;100.00
66664;BME280;59683;51.428;-1.994;2023-05-10T06:50:09;100571.59;;;13.54;100.00
66664;BME280;59683;51.428;-1.994;2023-05-10T06:52:35;100569.09;;;13.52;100.00
66664;BME280;59683;51.428;-1.994;2023-05-10T06:55:00;100564.66;;;13.90;100.00
66664;BME280;59683;51.428;-1.994;2023-05-10T06:57:26;100536.63;;;14.33;100.00
66664;BME280;59683;51.428;-1.994;2023-05-10T06:59:52;100518.84;;;14.24;100.00
66664;BME280;59683;51.428;-1.994;2023-05-10T07:02:20;100495.34;;;14.19;100.00
66664;BME280;59683;51.428;-1.994;2023-05-10T07:04:47;100489.75;;;14.68;100.00
66664;BME280;59683;51.428;-1.994;2023-05-10T07:07:13;100484.56;;;15.02;100.00
66664;BME280;59683;51.428;-1.994;2023-05-10T07:09:38;100501.22;;;15.22;100.00
66664;BME280;59683;51.428;-1.994;2023-05-10T07:12:04;100495.88;;;15.66;100.00
66664;BME280;59683;51.428;-1.994;2023-05-10T07:14:29;100484.13;;;15.85;100.00
66664;BME280;59683;51.428;-1.994;2023-05-10T07:16:55;100478.94;;;16.84;100.00
66664;BME280;59683;51.428;-1.994;2023-05-10T07:19:20;100483.28;;;17.34;100.00
66664;BME280;59683;51.428;-1.994;2023-05-10T07:21:45;100493.81;;;17.36;100.00
66664;BME280;59683;51.428;-1.994;2023-05-10T07:24:11;100484.06;;;16.61;100.00
66664;BME280;59683;51.428;-1.994;2023-05-10T07:27:15;100488.97;;;16.23;100.00
66664;BME280;59683;51.428;-1.994;2023-05-10T07:40:04;100484.63;;;15.10;100.00
66664;BME280;59683;51.428;-1.994;2023-05-10T07:42:43;100491.41;;;14.69;100.00
66664;BME280;59683;51.428;-1.994;2023-05-10T07:45:26;100482.81;;;14.57;100.00
66664;BME280;59683;51.428;-1.994;2023-05-10T07:47:52;100477.25;;;14.50;100.00
66664;BME280;59683;51.428;-1.994;2023-05-10T07:50:18;100472.19;;;14.47;100.00
66664;BME280;59683;51.428;-1.994;2023-05-10T07:52:46;100481.66;;;14.14;100.00
66664;BME280;59683;51.428;-1.994;2023-05-10T07:55:40;100472.81;;;14.14;100.00
66664;BME280;59683;51.428;-1.994;2023-05-10T07:58:43;100470.88;;;14.06;100.00
66664;BME280;59683;51.428;-1.994;2023-05-10T08:01:09;100472.25;;;14.38;100.00
66664;BME280;59683;51.428;-1.994;2023-05-10T08:10:41;100481.97;;;15.80;100.00
66664;BME280;59683;51.428;-1.994;2023-05-10T08:16:08;100490.75;;;15.72;100.00
66664;BME280;59683;51.428;-1.994;2023-05-10T08:21:29;100489.81;;;15.38;100.00
66664;BME280;59683;51.428;-1.994;2023-05-10T08:24:17;100496.88;;;15.21;100.00
66664;BME280;59683;51.428;-1.994;2023-05-10T08:26:47;100494.50;;;15.18;100.00
66664;BME280;59683;51.428;-1.994;2023-05-10T08:29:14;100487.66;;;15.15;100.00
66664;BME280;59683;51.428;-1.994;2023-05-10T08:31:42;100488.28;;;15.09;100.00
66664;BME280;59683;51.428;-1.994;2023-05-10T08:34:32;100494.69;;;15.16;100.00
66664;BME280;59683;51.428;-1.994;2023-05-10T08:37:01;100500.09;;;15.06;100.00
66664;BME280;59683;51.428;-1.994;2023-05-10T08:39:42;100494.38;;;14.84;100.00
66664;BME280;59683;51.428;-1.994;2023-05-10T08:42:11;100498.25;;;14.89;100.00
66664;BME280;59683;51.428;-1.994;2023-05-10T08:44:45;100492.19;;;14.61;100.00
66664;BME280;59683;51.428;-1.994;2023-05-10T08:47:35;100492.22;;;14.51;100.00
66664;BME280;59683;51.428;-1.994;2023-05-10T09:03:12;100497.00;;;16.90;100.00
66664;BME280;59683;51.428;-1.994;2023-05-10T09:06:13;100505.69;;;16.34;100.00
66664;BME280;59683;51.428;-1.994;2023-05-10T09:08:42;100491.06;;;16.03;100.00
66664;BME280;59683;51.428;-1.994;2023-05-10T09:11:08;100497.34;;;15.94;100.00
66664;BME280;59683;51.428;-1.994;2023-05-10T09:13:36;100506.50;;;15.84;100.00
66664;BME280;59683;51.428;-1.994;2023-05-10T09:16:05;100496.56;;;16.52;100.00
66664;BME280;59683;51.428;-1.994;2023-05-10T09:18:42;100490.63;;;16.91;100.00
66664;BME280;59683;51.428;-1.994;2023-05-10T09:21:08;100501.13;;;16.77;100.00
66664;BME280;59683;51.428;-1.994;2023-05-10T09:23:35;100498.16;;;16.96;100.00
66664;BME280;59683;51.428;-1.994;2023-05-10T09:26:07;100497.50;;;17.10;100.00
66664;BME280;59683;51.428;-1.994;2023-05-10T09:28:59;100509.84;;;17.60;100.00
66664;BME280;59683;51.428;-1.994;2023-05-10T09:34:17;100511.00;;;16.25;100.00
66664;BME280;59683;51.428;-1.994;2023-05-10T09:36:54;100510.00;;;15.84;100.00
66664;BME280;59683;51.428;-1.994;2023-05-10T09:39:20;100508.44;;;15.29;100.00
66664;BME280;59683;51.428;-1.994;2023-05-10T09:41:46;100516.69;;;15.00;100.00
66664;BME280;59683;51.428;-1.994;2023-05-10T09:44:16;100515.03;;;14.64;100.00
66664;BME280;59683;51.428;-1.994;2023-05-10T09:46:42;100512.66;;;14.61;100.00
66664;BME280;59683;51.428;-1.994;2023-05-10T09:49:08;100512.88;;;14.49;100.00
66664;BME280;59683;51.428;-1.994;2023-05-10T09:51:34;100524.53;;;14.39;100.00
66664;BME280;59683;51.428;-1.994;2023-05-10T09:54:14;100511.41;;;14.27;100.00
66664;BME280;59683;51.428;-1.994;2023-05-10T09:56:40;100518.31;;;14.75;100.00
66664;BME280;59683;51.428;-1.994;2023-05-10T09:59:07;100516.66;;;15.62;100.00
66664;BME280;59683;51.428;-1.994;2023-05-10T10:01:33;100511.75;;;16.10;100.00
66664;BME280;59683;51.428;-1.994;2023-05-10T10:04:02;100505.31;;;16.20;100.00
66664;BME280;59683;51.428;-1.994;2023-05-10T10:06:29;100511.69;;;16.78;100.00
66664;BME280;59683;51.428;-1.994;2023-05-10T10:08:54;100503.84;;;16.93;100.00
66664;BME280;59683;51.428;-1.994;2023-05-10T10:11:20;100502.09;;;16.67;100.00
66664;BME280;59683;51.428;-1.994;2023-05-10T10:13:46;100506.50;;;16.77;100.00
66664;BME280;59683;51.428;-1.994;2023-05-10T10:16:11;100501.31;;;18.20;100.00
66664;BME280;59683;51.428;-1.994;2023-05-10T10:18:36;100508.94;;;19.32;100.00
66664;BME280;59683;51.428;-1.994;2023-05-10T10:21:08;100507.50;;;19.59;100.00
66664;BME280;59683;51.428;-1.994;2023-05-10T10:23:37;100507.56;;;19.36;100.00
66664;BME280;59683;51.428;-1.994;2023-05-10T10:26:04;100496.69;;;18.37;100.00
66664;BME280;59683;51.428;-1.994;2023-05-10T10:31:44;100503.47;;;17.61;100.00
66664;BME280;59683;51.428;-1.994;2023-05-10T10:34:21;100508.88;;;17.12;100.00
66664;BME280;59683;51.428;-1.994;2023-05-10T10:36:50;100506.19;;;17.04;100.00
66664;BME280;59683;51.428;-1.994;2023-05-10T10:39:15;100492.91;;;16.62;100.00
66664;BME280;59683;51.428;-1.994;2023-05-10T10:41:52;100503.03;;;16.34;100.00
66664;BME280;59683;51.428;-1.994;2023-05-10T10:44:24;100497.34;;;16.29;100.00
66664;BME280;59683;51.428;-1.994;2023-05-10T10:47:20;100503.38;;;16.47;100.00
66664;BME280;59683;51.428;-1.994;2023-05-10T10:52:38;100502.84;;;17.27;100.00
66664;BME280;59683;51.428;-1.994;2023-05-10T10:57:50;100505.19;;;16.89;100.00
66664;BME280;59683;51.428;-1.994;2023-05-10T11:00:43;100499.72;;;16.40;100.00
66664;BME280;59683;51.428;-1.994;2023-05-10T11:03:11;100500.94;;;16.11;100.00
